Time;durP1;ratioP1;P1;durP2;ratioP2;P2;SDS_P1;SDS_P2;PMS_P1;PMS_P2;Temp;Humidity;BMP_temperature;BMP_pressure;BME280_temperature;BME280_humidity;BME280_pressure;Samples;Min_cycle;Max_cycle;Signal;HPM_P1;HPM_P2
2023/01/29 00:01:29;;;;;;;11.77;6.70;;;3.60;99.90;;;;;;4985636;28;20473;-74
2023/01/29 00:03:54;;;;;;;13.43;6.70;;;3.60;99.90;;;;;;4990080;28;20428;-74
2023/01/29 00:06:22;;;;;;;10.00;6.43;;;3.60;99.90;;;;;;5005586;28;20072;-74
2023/01/29 00:08:48;;;;;;;12.70;6.32;;;3.50;99.90;;;;;;4989188;28;20053;-74
2023/01/29 00:11:15;;;;;;;12.50;6.30;;;3.60;99.90;;;;;;5006013;28;20058;-74
2023/01/29 00:13:41;;;;;;;12.50;6.20;;;3.60;99.90;;;;;;4985119;28;20088;-74
2023/01/29 00:16:07;;;;;;;9.63;6.20;;;3.60;99.90;;;;;;5005190;28;20513;-74
2023/01/29 00:18:37;;;;;;;11.13;6.10;;;3.60;99.90;;;;;;4988655;28;20129;-74
2023/01/29 00:21:07;;;;;;;9.98;5.82;;;3.60;99.90;;;;;;5005789;28;20097;-74
2023/01/29 00:23:32;;;;;;;11.48;5.85;;;3.50;99.90;;;;;;4989185;28;20108;-74
2023/01/29 00:26:01;;;;;;;13.43;7.00;;;3.50;99.90;;;;;;4988156;28;20046;-74
2023/01/29 00:28:27;;;;;;;11.35;6.57;;;3.60;99.90;;;;;;5003968;28;20054;-74
2023/01/29 00:30:52;;;;;;;11.77;6.13;;;3.50;99.90;;;;;;4988758;28;20054;-74
2023/01/29 00:33:18;;;;;;;9.87;5.83;;;3.50;99.90;;;;;;5005630;28;20076;-74
2023/01/29 00:35:44;;;;;;;11.87;6.40;;;3.50;99.90;;;;;;4988107;28;20053;-74
2023/01/29 00:38:09;;;;;;;12.67;6.40;;;3.60;99.90;;;;;;5005164;28;20073;-74
2023/01/29 00:46:08;;;;;;;10.52;7.18;;;3.50;99.90;;;;;;5005127;28;20053;-74
2023/01/29 00:48:35;;;;;;;14.25;7.55;;;3.50;99.90;;;;;;4988642;28;20046;-74
2023/01/29 00:51:01;;;;;;;10.35;7.05;;;3.50;99.90;;;;;;4988823;28;20036;-74
2023/01/29 00:53:27;;;;;;;14.23;8.38;;;3.50;99.90;;;;;;4989299;28;20038;-74
2023/01/29 00:55:53;;;;;;;12.10;8.25;;;3.50;99.90;;;;;;5005307;28;20104;-74
2023/01/29 00:58:21;;;;;;;12.00;8.03;;;3.50;99.90;;;;;;5004470;28;20124;-74
2023/01/29 01:00:48;;;;;;;13.38;8.35;;;3.50;99.90;;;;;;5000782;28;20048;-74
2023/01/29 01:03:14;;;;;;;14.13;8.63;;;3.50;99.90;;;;;;5005474;28;20034;-74
2023/01/29 01:05:41;;;;;;;13.45;8.55;;;3.50;99.90;;;;;;4990010;28;20038;-74
2023/01/29 01:10:19;;;;;;;12.13;8.30;;;3.50;99.90;;;;;;5008695;28;20034;-74
2023/01/29 01:11:06;;;;;;;15.35;8.23;;;3.50;99.90;;;;;;5003512;28;20382;-74
2023/01/29 01:13:33;;;;;;;10.85;7.32;;;3.60;99.90;;;;;;4992186;28;20362;-74
2023/01/29 01:15:59;;;;;;;12.15;8.10;;;3.60;99.90;;;;;;5008351;28;20058;-74
2023/01/29 01:18:28;;;;;;;14.03;8.33;;;3.60;99.90;;;;;;4990147;28;20045;-74
2023/01/29 01:20:57;;;;;;;12.07;7.75;;;3.60;99.90;;;;;;4992468;28;20119;-74
2023/01/29 01:23:22;;;;;;;13.80;8.43;;;3.60;99.90;;;;;;5008729;28;20044;-74
2023/01/29 01:25:48;;;;;;;14.00;9.20;;;3.60;99.90;;;;;;4992393;28;20050;-74
2023/01/29 01:28:14;;;;;;;11.80;8.13;;;3.60;99.90;;;;;;4991609;28;20045;-74
2023/01/29 01:30:40;;;;;;;15.70;9.33;;;3.60;99.90;;;;;;5008712;28;20054;-74
2023/01/29 01:33:05;;;;;;;15.47;8.73;;;3.60;99.90;;;;;;5008557;28;20044;-74
2023/01/29 01:35:31;;;;;;;14.30;8.87;;;3.60;99.90;;;;;;4991891;28;20042;-74
2023/01/29 01:37:57;;;;;;;12.77;8.27;;;3.60;99.90;;;;;;4991794;28;20054;-74
2023/01/29 01:40:24;;;;;;;15.90;8.80;;;3.60;99.90;;;;;;4975782;28;20046;-74
2023/01/29 01:42:55;;;;;;;12.80;8.13;;;3.60;99.90;;;;;;5007441;28;20168;-72
2023/01/29 01:45:29;;;;;;;13.98;8.25;;;3.60;99.90;;;;;;4999023;28;20042;-72
2023/01/29 01:48:11;;;;;;;12.80;7.95;;;3.60;99.90;;;;;;4991196;28;20042;-72
2023/01/29 01:50:55;;;;;;;15.70;8.43;;;3.60;99.90;;;;;;4992371;28;20536;-72
2023/01/29 01:53:52;;;;;;;11.20;7.60;;;3.60;99.90;;;;;;4998627;28;20054;-72
2023/01/29 01:56:26;;;;;;;12.07;8.10;;;3.60;99.90;;;;;;4990012;28;20089;-72
2023/01/29 01:58:57;;;;;;;14.68;8.60;;;3.60;99.90;;;;;;5006771;28;20081;-72
2023/01/29 02:01:27;;;;;;;12.88;7.90;;;3.60;99.90;;;;;;5006755;28;20045;-71
2023/01/29 02:09:47;;;;;;;14.23;8.88;;;3.60;99.90;;;;;;4993629;28;20052;-72
2023/01/29 02:12:15;;;;;;;12.98;9.27;;;3.60;99.90;;;;;;5007956;28;20120;-72
2023/01/29 02:14:42;;;;;;;14.40;9.82;;;3.70;99.90;;;;;;4991098;28;20041;-72
2023/01/29 02:17:16;;;;;;;16.45;9.65;;;3.60;99.90;;;;;;5006950;28;20050;-72
2023/01/29 02:19:50;;;;;;;16.20;9.57;;;3.60;99.90;;;;;;5006943;28;20117;-72
2023/01/29 02:22:28;;;;;;;14.40;9.73;;;3.60;99.90;;;;;;5008020;28;20045;-72
2023/01/29 02:25:21;;;;;;;14.45;9.77;;;3.70;99.90;;;;;;4990788;28;20045;-71
2023/01/29 02:27:47;;;;;;;14.27;9.70;;;3.60;99.90;;;;;;4989799;28;20029;-72
2023/01/29 02:30:21;;;;;;;14.23;9.53;;;3.70;99.90;;;;;;5007160;28;20053;-72
2023/01/29 02:32:57;;;;;;;16.20;10.60;;;3.70;99.90;;;;;;5007289;28;20088;-71
2023/01/29 02:35:33;;;;;;;14.90;10.35;;;3.70;99.90;;;;;;5006905;28;20046;-72
2023/01/29 02:38:08;;;;;;;18.50;11.23;;;3.70;99.90;;;;;;4990078;28;20550;-72
2023/01/29 02:40:53;;;;;;;16.30;11.10;;;3.70;99.90;;;;;;5006681;28;20100;-72
2023/01/29 02:43:26;;;;;;;17.30;11.45;;;3.70;99.90;;;;;;4982288;28;20562;-72
2023/01/29 02:45:51;;;;;;;16.60;10.63;;;3.70;99.90;;;;;;5006632;28;20030;-74
2023/01/29 02:48:24;;;;;;;18.57;12.07;;;3.70;99.90;;;;;;5005771;28;20048;-74
2023/01/29 02:51:04;;;;;;;18.90;12.90;;;3.70;99.90;;;;;;5006887;28;20077;-74
2023/01/29 02:53:50;;;;;;;18.70;12.65;;;3.80;99.90;;;;;;5006876;28;20056;-74
2023/01/29 02:56:23;;;;;;;22.08;13.55;;;3.80;99.90;;;;;;5002773;28;20050;-74
2023/01/29 02:58:59;;;;;;;21.15;12.68;;;3.70;99.90;;;;;;5006067;28;20065;-74
2023/01/29 03:01:38;;;;;;;19.25;12.98;;;3.80;99.90;;;;;;5006288;28;20042;-74
2023/01/29 03:04:10;;;;;;;17.83;12.48;;;3.80;99.90;;;;;;4988575;28;20041;-74
2023/01/29 03:06:46;;;;;;;22.88;13.77;;;3.80;99.90;;;;;;5006423;28;20042;-74
2023/01/29 03:09:41;;;;;;;20.08;13.45;;;3.80;99.90;;;;;;5006521;28;20069;-74
2023/01/29 03:12:27;;;;;;;23.23;14.77;;;3.80;99.90;;;;;;5005220;28;20068;-74
2023/01/29 03:15:10;;;;;;;23.60;14.25;;;3.80;99.90;;;;;;5006152;28;20058;-74
2023/01/29 03:17:44;;;;;;;23.10;13.85;;;3.80;99.90;;;;;;5005883;28;20081;-74
2023/01/29 03:20:17;;;;;;;21.65;14.50;;;3.80;99.90;;;;;;5006304;28;20505;-74
2023/01/29 03:22:49;;;;;;;21.90;13.88;;;3.80;99.90;;;;;;4989642;28;20084;-74
2023/01/29 03:33:50;;;;;;;18.13;13.00;;;3.80;99.90;;;;;;5002790;28;20045;-74
2023/01/29 03:36:23;;;;;;;22.80;14.73;;;3.80;99.90;;;;;;4989107;28;20052;-74
2023/01/29 03:38:49;;;;;;;21.90;14.43;;;3.80;99.90;;;;;;4989076;28;20092;-74
2023/01/29 03:41:49;;;;;;;23.92;14.38;;;3.80;99.90;;;;;;4971434;28;20038;-74
2023/01/29 03:44:17;;;;;;;22.23;13.77;;;3.80;99.90;;;;;;4989858;28;20045;-74
2023/01/29 03:46:55;;;;;;;25.13;14.15;;;3.80;99.90;;;;;;4994048;28;20180;-74
2023/01/29 03:49:32;;;;;;;21.65;14.18;;;3.80;99.90;;;;;;4987814;28;20132;-74
2023/01/29 03:52:26;;;;;;;19.15;12.57;;;3.80;99.90;;;;;;4997698;28;20443;-74
2023/01/29 03:55:36;;;;;;;21.30;13.55;;;3.80;99.90;;;;;;5005352;28;20041;-74
2023/01/29 03:58:20;;;;;;;18.13;12.63;;;3.80;99.90;;;;;;4985163;28;20108;-74
2023/01/29 04:01:16;;;;;;;17.02;12.68;;;3.80;99.90;;;;;;4986685;28;20038;-74
2023/01/29 04:03:55;;;;;;;19.33;11.90;;;3.80;99.90;;;;;;5000805;28;20108;-74
2023/01/29 04:06:26;;;;;;;16.35;12.13;;;3.80;99.90;;;;;;5004918;28;20116;-74
2023/01/29 04:09:11;;;;;;;17.55;11.55;;;3.80;99.90;;;;;;4989519;28;20513;-74
2023/01/29 04:11:43;;;;;;;15.77;11.20;;;3.80;99.90;;;;;;5005759;28;20140;-74
2023/01/29 04:14:10;;;;;;;15.45;11.18;;;3.80;99.90;;;;;;4989201;28;20038;-74
2023/01/29 04:16:40;;;;;;;16.75;10.55;;;3.80;99.90;;;;;;5005305;28;20414;-74
2023/01/29 04:19:07;;;;;;;16.52;10.98;;;3.90;99.90;;;;;;5005200;28;20499;-74
2023/01/29 04:21:36;;;;;;;16.48;11.48;;;3.80;99.90;;;;;;4989274;28;20502;-74
2023/01/29 04:24:03;;;;;;;17.08;11.20;;;3.80;99.90;;;;;;5004993;28;20038;-74
2023/01/29 04:26:49;;;;;;;17.65;12.20;;;3.90;99.90;;;;;;4988534;28;20041;-74
2023/01/29 04:29:37;;;;;;;15.10;11.00;;;3.90;99.90;;;;;;4979912;28;20046;-74
2023/01/29 04:32:14;;;;;;;18.70;11.32;;;3.90;99.90;;;;;;4987761;28;20050;-74
2023/01/29 04:35:17;;;;;;;18.35;12.20;;;3.90;99.90;;;;;;5004682;28;20057;-75
2023/01/29 04:38:14;;;;;;;16.63;12.02;;;3.90;99.90;;;;;;4983532;28;20061;-74
2023/01/29 04:40:46;;;;;;;16.85;12.23;;;3.90;99.90;;;;;;4992854;28;20589;-74
2023/01/29 04:43:29;;;;;;;17.30;12.60;;;3.90;99.90;;;;;;4992418;28;20137;-74
2023/01/29 04:46:17;;;;;;;20.45;12.35;;;3.80;99.90;;;;;;5008611;28;20050;-74
2023/01/29 04:49:01;;;;;;;17.25;12.48;;;3.80;99.90;;;;;;5008734;28;20614;-74
2023/01/29 04:51:53;;;;;;;19.15;12.48;;;3.80;99.90;;;;;;4992711;28;20046;-74
2023/01/29 04:54:32;;;;;;;17.00;12.02;;;3.80;99.90;;;;;;5005660;28;20104;-74
2023/01/29 04:57:24;;;;;;;22.48;13.55;;;3.80;99.90;;;;;;5008933;28;20151;-74
2023/01/29 05:00:07;;;;;;;17.70;12.45;;;3.80;99.90;;;;;;5008143;28;20124;-74
2023/01/29 05:02:37;;;;;;;19.05;12.30;;;3.80;99.90;;;;;;4992581;28;20084;-74
2023/01/29 05:05:05;;;;;;;16.83;12.68;;;3.80;99.90;;;;;;5008322;28;20044;-74
2023/01/29 05:07:32;;;;;;;20.50;12.93;;;3.80;99.90;;;;;;5008390;28;20398;-74
2023/01/29 05:09:59;;;;;;;17.80;12.38;;;3.80;99.90;;;;;;4992667;28;20045;-74
2023/01/29 05:12:27;;;;;;;20.45;12.63;;;3.80;99.90;;;;;;5004806;28;20046;-74
2023/01/29 05:14:57;;;;;;;17.52;12.45;;;3.80;99.90;;;;;;5008561;28;20044;-74
2023/01/29 05:17:24;;;;;;;17.77;11.38;;;3.80;99.90;;;;;;4991411;28;20041;-74
2023/01/29 05:19:49;;;;;;;18.52;12.75;;;3.80;99.90;;;;;;5008418;28;20046;-74
2023/01/29 05:22:17;;;;;;;20.33;11.90;;;3.80;99.90;;;;;;4976516;28;20046;-74
2023/01/29 05:24:43;;;;;;;18.05;11.98;;;3.80;99.90;;;;;;5018926;28;20651;-74
2023/01/29 05:30:02;;;;;;;18.45;12.23;;;3.80;99.90;;;;;;5006469;28;20303;-74
2023/01/29 05:32:28;;;;;;;16.92;12.43;;;3.80;99.90;;;;;;5008426;28;20587;-74
2023/01/29 05:34:53;;;;;;;17.33;11.77;;;3.80;99.90;;;;;;4991928;28;20041;-74
2023/01/29 05:37:19;;;;;;;16.40;11.70;;;3.80;99.90;;;;;;5008117;28;20450;-74
2023/01/29 05:39:45;;;;;;;19.20;11.83;;;3.80;99.90;;;;;;5008331;28;20034;-74
2023/01/29 05:42:10;;;;;;;18.27;12.73;;;3.80;99.90;;;;;;5007779;28;20038;-74
2023/01/29 05:44:36;;;;;;;20.00;13.30;;;3.80;99.90;;;;;;5007662;28;20541;-74
2023/01/29 05:47:02;;;;;;;23.53;15.47;;;3.80;99.90;;;;;;4991730;28;20096;-74
2023/01/29 05:49:27;;;;;;;29.30;16.93;;;3.80;99.90;;;;;;4976055;28;20042;-74
2023/01/29 05:51:53;;;;;;;25.67;17.40;;;3.80;99.90;;;;;;4974204;28;20291;-74
2023/01/29 05:54:19;;;;;;;28.53;19.07;;;3.80;99.90;;;;;;4991930;28;20038;-74
2023/01/29 05:56:45;;;;;;;31.00;19.27;;;3.80;99.90;;;;;;5008114;28;20085;-74
2023/01/29 05:59:11;;;;;;;31.77;19.33;;;3.80;99.90;;;;;;5006551;28;20082;-74
2023/01/29 06:01:36;;;;;;;29.77;18.20;;;3.80;99.90;;;;;;5008186;28;20065;-74
2023/01/29 06:04:02;;;;;;;34.17;19.63;;;3.80;99.90;;;;;;5007963;28;20045;-74
2023/01/29 06:06:28;;;;;;;32.10;20.80;;;3.80;99.90;;;;;;4997560;28;20116;-74
2023/01/29 06:08:54;;;;;;;31.13;21.17;;;3.80;99.90;;;;;;5006223;28;20073;-74
2023/01/29 06:11:20;;;;;;;32.90;20.67;;;3.80;99.90;;;;;;5008121;28;20802;-74
2023/01/29 06:13:46;;;;;;;38.40;24.57;;;3.80;99.90;;;;;;5008147;28;20392;-74
2023/01/29 06:16:13;;;;;;;39.15;22.90;;;3.80;99.90;;;;;;5007357;28;20109;-74
2023/01/29 06:18:40;;;;;;;38.20;23.95;;;3.70;99.90;;;;;;4990768;28;20105;-74
2023/01/29 06:21:08;;;;;;;39.00;23.98;;;3.60;99.90;;;;;;5007605;28;20042;-74
2023/01/29 06:23:34;;;;;;;40.05;23.80;;;3.60;99.90;;;;;;5007671;28;20050;-74
2023/01/29 06:26:01;;;;;;;40.17;23.48;;;3.50;99.90;;;;;;5006904;28;20057;-74
2023/01/29 06:28:27;;;;;;;37.55;23.15;;;3.50;99.90;;;;;;4990693;28;20029;-74
2023/01/29 06:30:57;;;;;;;38.40;22.70;;;3.50;99.90;;;;;;5007773;28;20100;-74
2023/01/29 06:33:22;;;;;;;38.53;24.60;;;3.40;99.90;;;;;;5007867;28;20132;-74
2023/01/29 06:35:48;;;;;;;40.50;24.10;;;3.40;99.90;;;;;;4991042;28;20129;-74
2023/01/29 06:38:14;;;;;;;40.03;24.77;;;3.40;99.90;;;;;;5007137;28;20077;-74
2023/01/29 06:40:39;;;;;;;39.20;24.40;;;3.40;99.90;;;;;;4981241;28;20104;-74
2023/01/29 06:43:05;;;;;;;36.83;23.67;;;3.40;99.90;;;;;;4990521;28;20038;-74
2023/01/29 06:45:31;;;;;;;39.50;23.63;;;3.40;99.90;;;;;;5007029;28;20457;-74
2023/01/29 06:47:56;;;;;;;38.97;23.80;;;3.40;99.90;;;;;;5007012;28;20073;-74
2023/01/29 06:50:22;;;;;;;38.90;22.90;;;3.30;99.90;;;;;;4988943;28;20042;-74
2023/01/29 06:52:48;;;;;;;35.87;22.80;;;3.40;99.90;;;;;;4990946;28;20076;-74
2023/01/29 06:55:13;;;;;;;37.60;23.50;;;3.40;99.90;;;;;;4989561;28;20042;-74
2023/01/29 06:57:39;;;;;;;40.97;24.43;;;3.40;99.90;;;;;;5005210;28;20046;-74
2023/01/29 07:00:05;;;;;;;43.07;25.13;;;3.40;99.90;;;;;;5006463;28;20141;-74
2023/01/29 07:02:31;;;;;;;37.70;24.80;;;3.40;99.90;;;;;;4991185;28;20445;-74
2023/01/29 07:04:57;;;;;;;42.30;24.23;;;3.40;99.90;;;;;;5007325;28;20129;-74
2023/01/29 07:07:22;;;;;;;42.77;25.00;;;3.40;99.90;;;;;;5006640;28;20410;-74
2023/01/29 07:09:48;;;;;;;39.40;24.37;;;3.40;99.90;;;;;;4987165;28;20125;-74
2023/01/29 07:12:14;;;;;;;40.63;24.70;;;3.40;99.90;;;;;;5006181;28;20045;-74
2023/01/29 07:14:39;;;;;;;44.07;25.27;;;3.40;99.90;;;;;;4990270;28;20054;-74
2023/01/29 07:17:05;;;;;;;39.07;24.30;;;3.40;99.90;;;;;;4990349;28;20482;-74
2023/01/29 07:19:31;;;;;;;41.77;25.27;;;3.40;99.90;;;;;;4989930;28;20045;-74
2023/01/29 07:21:56;;;;;;;42.10;26.30;;;3.40;99.90;;;;;;4991099;28;20171;-74
2023/01/29 07:24:23;;;;;;;43.03;26.07;;;3.40;99.90;;;;;;5006538;28;20042;-74
2023/01/29 07:26:48;;;;;;;43.30;25.70;;;3.40;99.90;;;;;;4988265;28;20042;-74
2023/01/29 07:29:14;;;;;;;49.50;27.07;;;3.40;99.90;;;;;;4973886;28;20056;-74
2023/01/29 07:31:40;;;;;;;51.40;27.70;;;3.40;99.90;;;;;;5006621;28;20100;-74
2023/01/29 07:34:05;;;;;;;44.63;28.63;;;3.40;99.90;;;;;;5006181;28;20053;-74
2023/01/29 07:36:31;;;;;;;47.97;28.17;;;3.40;99.90;;;;;;5006525;28;20509;-74
2023/01/29 07:38:57;;;;;;;45.30;28.50;;;3.40;99.90;;;;;;4990078;28;20060;-74
2023/01/29 07:41:22;;;;;;;46.23;28.87;;;3.40;99.90;;;;;;4974093;28;20138;-74
2023/01/29 07:43:48;;;;;;;44.70;27.87;;;3.40;99.90;;;;;;5006027;28;20037;-74
2023/01/29 07:46:14;;;;;;;46.53;29.23;;;3.40;99.90;;;;;;4985465;28;20045;-74
2023/01/29 07:48:39;;;;;;;50.97;28.47;;;3.40;99.90;;;;;;5006298;28;20061;-73
2023/01/29 07:51:05;;;;;;;49.80;27.93;;;3.40;99.90;;;;;;4990572;28;20064;-74
2023/01/29 07:53:31;;;;;;;49.53;29.33;;;3.40;99.90;;;;;;5006058;28;20107;-74
2023/01/29 07:55:57;;;;;;;47.10;27.17;;;3.40;99.90;;;;;;4987568;28;20046;-74
2023/01/29 07:58:23;;;;;;;48.60;29.07;;;3.40;99.90;;;;;;5001296;28;20332;-74
2023/01/29 08:00:48;;;;;;;50.07;29.47;;;3.40;99.90;;;;;;4986450;28;20047;-74
2023/01/29 08:03:17;;;;;;;50.17;28.77;;;3.40;99.90;;;;;;4989679;28;20038;-74
2023/01/29 08:05:43;;;;;;;52.03;27.70;;;3.40;99.90;;;;;;4988580;28;20072;-74
2023/01/29 08:08:09;;;;;;;50.53;28.15;;;3.50;99.90;;;;;;4990161;28;20046;-74
2023/01/29 08:10:35;;;;;;;51.23;28.37;;;3.50;99.90;;;;;;5006568;28;20046;-74
2023/01/29 08:13:02;;;;;;;47.83;28.42;;;3.50;99.90;;;;;;4982142;28;20050;-74
2023/01/29 08:15:28;;;;;;;53.03;29.02;;;3.60;99.90;;;;;;5006164;28;20124;-74
2023/01/29 08:17:55;;;;;;;49.88;28.98;;;3.60;99.90;;;;;;5005696;28;20053;-74
2023/01/29 08:20:21;;;;;;;50.60;29.20;;;3.60;99.90;;;;;;5006063;28;20049;-74
2023/01/29 08:22:47;;;;;;;53.05;29.25;;;3.60;99.90;;;;;;5006717;28;20453;-74
2023/01/29 08:25:14;;;;;;;50.23;28.43;;;3.70;99.90;;;;;;4982694;28;20042;-74
2023/01/29 08:27:40;;;;;;;47.83;28.20;;;3.70;99.90;;;;;;5000488;28;20082;-74
2023/01/29 08:30:07;;;;;;;52.53;28.50;;;3.70;99.90;;;;;;4989485;28;20167;-74
2023/01/29 08:32:33;;;;;;;52.05;29.95;;;3.80;99.90;;;;;;4990306;28;20478;-74
2023/01/29 08:34:59;;;;;;;44.67;28.10;;;3.80;99.90;;;;;;4990239;28;20092;-73
2023/01/29 08:37:24;;;;;;;46.03;26.53;;;3.80;99.90;;;;;;5005999;28;20057;-74
2023/01/29 08:39:50;;;;;;;46.00;27.80;;;3.80;99.90;;;;;;4988791;28;20046;-74
2023/01/29 08:42:16;;;;;;;47.63;26.50;;;3.80;99.90;;;;;;4995002;28;20407;-74
2023/01/29 08:44:41;;;;;;;50.43;28.73;;;3.90;99.90;;;;;;5006384;28;20037;-74
2023/01/29 08:47:07;;;;;;;50.47;28.23;;;3.90;99.90;;;;;;4971003;28;20659;-74
2023/01/29 08:49:33;;;;;;;48.03;27.50;;;3.90;99.90;;;;;;5004944;28;20045;-74
2023/01/29 08:51:59;;;;;;;49.27;27.43;;;3.90;99.90;;;;;;5006313;28;20222;-74
2023/01/29 08:54:24;;;;;;;47.13;28.23;;;4.00;99.90;;;;;;5006152;28;20042;-74
2023/01/29 08:56:50;;;;;;;51.03;28.23;;;4.00;99.90;;;;;;4989328;28;20502;-74
2023/01/29 08:59:16;;;;;;;44.80;26.47;;;4.00;99.90;;;;;;5005890;28;20045;-74
2023/01/29 09:01:42;;;;;;;43.00;26.30;;;3.90;99.90;;;;;;4987405;28;20121;-74
2023/01/29 09:04:07;;;;;;;45.13;26.40;;;4.00;99.90;;;;;;5006045;28;20042;-74
2023/01/29 09:06:33;;;;;;;40.47;25.37;;;4.00;99.90;;;;;;4989701;28;20084;-74
2023/01/29 09:08:59;;;;;;;45.30;26.63;;;4.00;99.90;;;;;;5005248;28;20521;-74
2023/01/29 09:11:25;;;;;;;44.10;24.63;;;4.00;99.90;;;;;;4971678;28;20073;-74
2023/01/29 09:13:51;;;;;;;45.97;25.63;;;4.00;99.90;;;;;;4988064;28;20081;-73
2023/01/29 09:16:16;;;;;;;44.20;25.80;;;4.00;99.90;;;;;;4987884;28;20125;-73
2023/01/29 09:18:42;;;;;;;46.70;26.37;;;4.00;99.90;;;;;;4980439;28;20518;-73
2023/01/29 09:21:08;;;;;;;47.00;26.93;;;4.10;99.90;;;;;;4989866;28;20042;-74
2023/01/29 09:23:33;;;;;;;43.87;26.37;;;4.10;99.90;;;;;;4989018;28;20038;-74
2023/01/29 09:25:59;;;;;;;47.73;27.90;;;4.10;99.90;;;;;;5005614;28;20050;-73
2023/01/29 09:28:25;;;;;;;48.43;26.00;;;4.10;99.90;;;;;;4988785;28;20041;-74
2023/01/29 09:30:51;;;;;;;48.50;27.13;;;4.10;99.90;;;;;;4992404;28;20691;-74
2023/01/29 09:33:17;;;;;;;46.50;27.10;;;4.20;99.90;;;;;;4993234;28;20042;-74
2023/01/29 09:35:45;;;;;;;46.63;26.63;;;4.20;99.90;;;;;;4976152;28;20038;-74
2023/01/29 09:38:11;;;;;;;49.70;26.70;;;4.20;99.90;;;;;;4999820;28;20278;-73
2023/01/29 09:40:51;;;;;;;50.03;27.07;;;4.30;99.90;;;;;;5024411;28;20048;-74
2023/01/29 09:43:26;;;;;;;44.33;26.10;;;4.30;99.90;;;;;;5009024;28;20277;-74
2023/01/29 09:45:59;;;;;;;50.83;27.60;;;4.30;99.90;;;;;;4981657;28;20044;-73
2023/01/29 09:48:28;;;;;;;46.85;26.63;;;4.30;99.90;;;;;;4990107;28;20096;-74
2023/01/29 09:50:57;;;;;;;48.55;28.58;;;4.30;99.90;;;;;;5003661;28;20554;-73
2023/01/29 09:53:53;;;;;;;48.45;27.63;;;4.30;99.90;;;;;;5001410;28;20121;-74
2023/01/29 09:56:27;;;;;;;47.83;26.48;;;4.30;99.90;;;;;;4989307;28;20053;-74
2023/01/29 09:58:57;;;;;;;51.78;29.00;;;4.30;99.90;;;;;;4973620;28;20138;-73
2023/01/29 10:01:36;;;;;;;50.30;28.83;;;4.30;99.90;;;;;;4985521;28;20491;-73
2023/01/29 10:04:40;;;;;;;51.22;29.60;;;4.30;99.90;;;;;;4990309;28;20046;-73
2023/01/29 10:07:19;;;;;;;57.85;29.77;;;4.30;99.90;;;;;;5005325;28;20037;-73
2023/01/29 10:09:49;;;;;;;53.95;28.65;;;4.30;99.90;;;;;;4987464;28;20560;-73
2023/01/29 10:12:41;;;;;;;50.83;27.60;;;4.30;99.90;;;;;;4990326;28;20040;-73
2023/01/29 10:15:27;;;;;;;53.05;28.05;;;4.40;99.90;;;;;;5001354;28;20093;-73
2023/01/29 10:17:59;;;;;;;53.92;29.40;;;4.40;99.90;;;;;;5005209;28;20038;-73
2023/01/29 10:20:39;;;;;;;57.35;31.67;;;4.40;99.90;;;;;;5004415;28;20046;-73
2023/01/29 10:23:20;;;;;;;55.72;29.58;;;4.40;99.90;;;;;;5006246;28;20123;-74
2023/01/29 10:25:47;;;;;;;54.88;28.10;;;4.40;99.90;;;;;;4980594;28;20104;-73
2023/01/29 10:28:38;;;;;;;56.95;30.65;;;4.40;99.90;;;;;;5003049;28;20049;-74
2023/01/29 10:31:11;;;;;;;47.35;25.27;;;4.50;99.90;;;;;;5008492;28;20046;-73
2023/01/29 10:33:45;;;;;;;50.88;27.40;;;4.50;99.90;;;;;;5008728;28;20045;-73
2023/01/29 10:36:24;;;;;;;44.78;25.38;;;4.60;99.90;;;;;;4987502;28;20045;-73
2023/01/29 10:38:51;;;;;;;45.08;24.27;;;4.60;99.90;;;;;;5006332;28;20038;-73
2023/01/29 10:41:40;;;;;;;42.10;22.65;;;4.60;99.90;;;;;;5006987;28;20037;-73
2023/01/29 10:44:08;;;;;;;45.45;22.73;;;4.60;99.90;;;;;;5005128;28;20137;-73
2023/01/29 10:46:49;;;;;;;39.88;21.45;;;4.70;99.90;;;;;;4988263;28;20073;-73
2023/01/29 10:49:40;;;;;;;44.20;23.38;;;4.70;99.90;;;;;;5005363;28;20128;-73
2023/01/29 10:52:24;;;;;;;40.22;22.70;;;4.80;99.90;;;;;;5002214;28;20069;-73
2023/01/29 10:55:08;;;;;;;38.85;21.02;;;4.80;99.90;;;;;;5003590;28;20461;-73
2023/01/29 10:58:00;;;;;;;43.72;23.02;;;4.80;99.90;;;;;;5002002;28;20116;-74
2023/01/29 11:00:32;;;;;;;37.60;22.15;;;4.80;99.90;;;;;;5003664;28;20403;-74
2023/01/29 11:03:15;;;;;;;43.97;25.92;;;4.90;99.90;;;;;;5004602;28;20161;-74
2023/01/29 11:05:50;;;;;;;41.33;22.27;;;4.90;99.90;;;;;;4989997;28;20131;-74
2023/01/29 11:08:22;;;;;;;39.67;22.35;;;4.90;99.90;;;;;;5006869;28;20111;-74
2023/01/29 11:11:07;;;;;;;43.80;24.27;;;5.00;99.90;;;;;;5007515;28;20042;-74
2023/01/29 11:13:41;;;;;;;43.63;22.60;;;5.00;99.90;;;;;;4998221;28;20046;-73
2023/01/29 11:16:08;;;;;;;43.05;25.02;;;5.00;99.90;;;;;;5005137;28;20049;-73
2023/01/29 11:18:53;;;;;;;41.63;24.40;;;5.00;99.90;;;;;;5003709;28;20057;-74
2023/01/29 11:21:20;;;;;;;41.73;24.77;;;5.00;99.90;;;;;;4989769;28;20084;-74
2023/01/29 11:23:46;;;;;;;50.38;24.90;;;4.90;99.90;;;;;;4989067;28;20305;-74
2023/01/29 11:26:16;;;;;;;44.55;22.95;;;4.90;99.90;;;;;;5006506;28;20111;-73
2023/01/29 11:28:47;;;;;;;42.38;22.30;;;5.00;99.90;;;;;;4988549;28;20117;-73
2023/01/29 11:31:25;;;;;;;43.53;22.63;;;5.00;99.90;;;;;;4988280;28;20490;-74
2023/01/29 11:33:54;;;;;;;37.30;22.45;;;5.10;99.90;;;;;;4996888;28;20037;-73
2023/01/29 11:36:21;;;;;;;42.92;23.50;;;5.10;99.90;;;;;;4989800;28;20053;-73
2023/01/29 11:39:03;;;;;;;39.95;22.25;;;5.10;99.90;;;;;;5002716;28;20056;-73
2023/01/29 11:41:29;;;;;;;38.95;21.92;;;5.20;99.90;;;;;;5002829;28;20042;-73
2023/01/29 11:43:58;;;;;;;37.57;20.97;;;5.30;99.90;;;;;;4991041;28;20056;-73
2023/01/29 11:46:24;;;;;;;38.30;21.33;;;5.30;99.90;;;;;;5000825;28;20038;-73
2023/01/29 11:48:53;;;;;;;37.07;22.10;;;5.20;99.90;;;;;;4988401;28;20120;-74
2023/01/29 11:51:28;;;;;;;39.00;23.70;;;5.20;99.90;;;;;;5004658;28;20104;-74
2023/01/29 11:53:57;;;;;;;42.22;23.25;;;5.20;99.90;;;;;;4988240;28;20034;-74
2023/01/29 11:56:47;;;;;;;43.00;24.92;;;5.10;99.90;;;;;;5006332;28;20044;-73
2023/01/29 11:59:47;;;;;;;44.00;25.20;;;5.10;99.90;;;;;;5002557;28;20065;-74
2023/01/29 12:02:18;;;;;;;48.58;26.67;;;5.00;99.90;;;;;;5001940;28;20084;-72
2023/01/29 12:04:44;;;;;;;42.35;24.75;;;4.90;99.90;;;;;;5006031;28;20385;-73
2023/01/29 12:07:16;;;;;;;42.03;24.40;;;4.90;99.90;;;;;;5007018;28;20037;-73
2023/01/29 12:09:50;;;;;;;47.38;27.15;;;4.90;99.90;;;;;;4984011;28;20030;-73
2023/01/29 12:12:26;;;;;;;47.15;27.80;;;4.80;99.90;;;;;;5002187;28;20052;-73
2023/01/29 12:15:19;;;;;;;44.35;24.88;;;4.80;99.90;;;;;;5005197;28;20080;-72
2023/01/29 12:18:12;;;;;;;47.28;24.75;;;4.70;99.90;;;;;;5003135;28;20133;-74
2023/01/29 12:20:47;;;;;;;46.03;26.67;;;4.70;99.90;;;;;;4986719;28;20042;-72
2023/01/29 12:23:25;;;;;;;45.10;25.42;;;4.50;99.90;;;;;;5004676;28;20037;-73
2023/01/29 12:26:12;;;;;;;45.10;25.95;;;4.50;99.90;;;;;;4987968;28;20651;-73
2023/01/29 12:28:56;;;;;;;42.90;25.98;;;4.50;99.90;;;;;;5001666;28;20040;-74
2023/01/29 12:31:32;;;;;;;47.15;26.30;;;4.50;99.90;;;;;;5002437;28;20129;-72
2023/01/29 12:34:01;;;;;;;;;;;4.50;99.90;;;;;;5002737;28;20035;-73
2023/01/29 12:36:39;;;;;;;49.65;27.23;;;4.40;99.90;;;;;;5006965;28;20312;-72
2023/01/29 12:39:05;;;;;;;53.05;28.17;;;4.40;99.90;;;;;;5004737;28;20383;-72
2023/01/29 12:41:49;;;;;;;53.90;28.73;;;4.40;99.90;;;;;;4984803;28;20050;-73
2023/01/29 12:44:24;;;;;;;49.22;27.67;;;4.30;99.90;;;;;;5009202;28;20038;-73
2023/01/29 12:46:55;;;;;;;53.97;29.52;;;4.30;99.90;;;;;;5008150;28;20038;-73
2023/01/29 12:49:28;;;;;;;48.47;27.95;;;4.30;99.90;;;;;;5007449;28;20049;-73
2023/01/29 12:52:06;;;;;;;46.65;29.15;;;4.30;99.90;;;;;;5007515;28;20042;-73
2023/01/29 12:54:52;;;;;;;50.38;28.85;;;4.20;99.90;;;;;;5007360;28;20037;-72
2023/01/29 12:57:30;;;;;;;46.50;27.75;;;4.20;99.90;;;;;;5007365;28;20053;-72
2023/01/29 13:00:03;;;;;;;51.13;28.75;;;4.10;99.90;;;;;;5005908;28;20120;-73
2023/01/29 13:02:35;;;;;;;52.10;28.75;;;4.10;99.90;;;;;;5007577;28;20037;-73
2023/01/29 13:05:36;;;;;;;49.88;28.23;;;4.10;99.90;;;;;;5010709;28;20508;-73
2023/01/29 13:08:16;;;;;;;62.83;33.20;;;4.00;99.90;;;;;;4992577;28;20871;-73
2023/01/29 13:10:47;;;;;;;59.63;30.42;;;4.00;99.90;;;;;;5003452;28;20205;-73
2023/01/29 13:13:26;;;;;;;52.28;29.35;;;4.00;99.90;;;;;;5009873;28;20053;-72
2023/01/29 13:15:52;;;;;;;60.60;30.95;;;4.00;99.90;;;;;;5011402;28;20038;-73
2023/01/29 13:18:36;;;;;;;58.28;30.40;;;4.00;99.90;;;;;;5013091;28;20080;-72
2023/01/29 13:21:04;;;;;;;57.90;29.65;;;4.00;99.90;;;;;;5010669;28;20053;-73
2023/01/29 13:23:45;;;;;;;58.30;30.65;;;4.00;99.90;;;;;;5008905;28;20323;-73
2023/01/29 13:26:12;;;;;;;59.83;30.75;;;4.00;99.90;;;;;;5008007;28;20044;-73